Flight Track Log - Related Links

Times and Time Zones

All times are in EDT time to prevent confusion due to time zone crossing. See the PDT4462 flight status page for this flight to view local times or setup timezone preferences in your user account.

Time Position Orientation Groundspeed Altitude Reporting Facility
EDT Latitude Longitude Course Direction KTS MPH feet Rate Location/Type
Wed 02:45:00 PM 33.5233 -81.9852 347° North  Level FlightAware Approximate
Wed 02:45:52 PM 33.5064 -82.0183 352° North 189 217 4,100  Level Atlanta Center
Wed 02:46:00 PM 33.5750 -82.0000 347° North  Level FlightAware Approximate
Wed 02:46:52 PM 33.5567 -82.0372 343° North 189 217 5,200  Level Atlanta Center
Wed 02:47:00 PM 33.6267 -82.0148 347° North  Level FlightAware Approximate
Wed 02:47:52 PM 33.6111 -82.0558 344° North 194 223 6,300  Level Atlanta Center
Wed 02:48:00 PM 33.6793 -82.0232 353° North  Level FlightAware Approximate
Wed 02:48:52 PM 33.6678 -82.0644 353° North 194 223 7,500  Level Atlanta Center
Wed 02:49:00 PM 33.7320 -82.0308 353° North  Level FlightAware Approximate
Wed 02:49:52 PM 33.7242 -82.0731 353° North 199 229 8,700  Level Atlanta Center
Wed 02:50:00 PM 33.7799 -82.0522 352° North  Level FlightAware Approximate
Wed 02:50:52 PM 33.7828 -82.0819 353° North 199 229 9,800  Level Atlanta Center
Wed 02:51:00 PM 33.8325 -82.0610 352° North  Level FlightAware Approximate
Wed 02:51:52 PM 33.8478 -82.0928 352° North 206 237 10,900  Level Atlanta Center
Wed 02:52:52 PM 33.9147 -82.1014 354° North 218 251 10,900  Level Atlanta Center
Wed 02:53:52 PM 33.9878 -82.1122 353° North 239 275 10,900  Level Atlanta Center
Wed 02:54:52 PM 34.0631 -82.1256 352° North 261 300 10,900  Level Atlanta Center
Wed 02:55:52 PM 34.1364 -82.1389 351° North 261 300 10,900  Level Atlanta Center
Wed 02:56:52 PM 34.2117 -82.1472 355° North 261 300 10,900  Level Atlanta Center
Wed 02:57:52 PM 34.2761 -82.1258 15° North 240 276 10,900 -400 Level Atlanta Center
Wed 02:58:52 PM 34.3250 -82.0592 48° Northeast 234 269 10,100 -800 Descending Atlanta Center
Wed 02:59:52 PM 34.3742 -81.9978 46° Northeast 239 275 9,300 -550 Descending Atlanta Center
Wed 03:00:52 PM 34.4233 -81.9361 46° Northeast 245 282 9,000 -150 Descending Atlanta Center
Wed 03:01:52 PM 34.4722 -81.8769 45° Northeast 245 282 9,000  Level Atlanta Center
Wed 03:02:52 PM 34.5172 -81.8153 48° Northeast 245 282 9,000  Level Atlanta Center
Wed 03:03:52 PM 34.5642 -81.7586 45° Northeast 245 282 9,000  Level Atlanta Center
Wed 03:04:52 PM 34.6131 -81.6992 45° Northeast 245 282 9,000  Level Atlanta Center
Wed 03:05:27 PM 34.6375 -81.6656 49° Northeast 244 281 9,000  Level Atlanta Center
Wed 03:05:52 PM 34.6600 -81.6397 43° Northeast 245 282 9,000  Level Atlanta Center
Wed 03:06:16 PM 34.6783 -81.6164 46° Northeast 244 281 9,000  Level Atlanta Center
Wed 03:07:17 PM 34.7250 -81.5544 47° Northeast 244 281 9,000  Level Atlanta Center
Wed 03:08:24 PM 34.7778 -81.4847 47° Northeast 246 283 9,000 -47 Level Atlanta Center
Wed 03:09:26 PM 34.8225 -81.4250 48° Northeast 246 283 8,900 -488 Descending Atlanta Center
Wed 03:10:27 PM 34.7897 -81.3603 122° Southeast 234 269 8,000 -879 Descending Atlanta Center
Wed 03:11:22 PM 34.7572 -81.3008 124° Southeast 238 274 7,200 -517 Descending Atlanta Center
Wed 03:12:23 PM 34.7658 -81.2244 82° East 219 252 7,000 -98 Descending Atlanta Center
Wed 03:13:24 PM 34.7703 -81.1486 86° East 222 255 7,000 -344 Level Atlanta Center
Wed 03:14:25 PM 34.7728 -81.0700 88° East 233 268 6,300 -683 Descending Atlanta Center
Wed 03:15:27 PM 34.7731 -81.0017 90° East 191 220 5,600 -634 Descending Atlanta Center
Wed 03:16:28 PM 34.8053 -80.9575 48° Northeast 197 227 5,000 -295 Descending Atlanta Center
Wed 03:17:29 PM 34.8611 -80.9378 16° North 204 235 5,000  Level Atlanta Center
Wed 03:18:36 PM 34.9219 -80.9433 356° North 206 237 5,000  Level Atlanta Center
Wed 03:19:31 PM 34.9742 -80.9464 357° North 204 235 5,000 -513 Level Atlanta Center
Wed 03:20:33 PM 35.0347 -80.9542 354° North 208 239 4,000 -976 Descending Atlanta Center
Wed 03:21:34 PM 35.0872 -80.9600 355° North 183 211 3,000 -984 Descending Atlanta Center

Login

Don't have an account? Register now (free) for customized features, flight alerts, and more!